Time;durP1;ratioP1;P1;durP2;ratioP2;P2;SDS_P1;SDS_P2;PMS_P1;PMS_P2;Temp;Humidity;BMP_temperature;BMP_pressure;BME280_temperature;BME280_humidity;BME280_pressure;Samples;Min_cycle;Max_cycle;Signal;HPM_P1;HPM_P2
2023/05/12 00:03:44;;;;;;;3.55;2.05;;;;;;;15.77;48.09;99828.56;7736532;32;40052;-88
2023/05/12 00:08:00;;;;;;;2.45;1.73;;;;;;;15.62;48.69;99825.28;7737177;32;40832;-88
2023/05/12 00:12:17;;;;;;;3.80;2.03;;;;;;;15.88;47.71;99825.63;7737676;32;38031;-89
2023/05/12 00:16:33;;;;;;;3.97;2.25;;;;;;;15.84;47.72;99825.41;7737765;32;36951;-88
2023/05/12 00:20:49;;;;;;;3.20;2.22;;;;;;;15.60;48.65;99831.09;7737968;32;37365;-87
2023/05/12 00:25:06;;;;;;;5.43;2.87;;;;;;;15.66;48.14;99821.62;7737723;32;40737;-87
2023/05/12 00:29:22;;;;;;;5.28;2.30;;;;;;;15.61;48.62;99826.41;7719709;32;37904;-87
2023/05/12 00:33:39;;;;;;;3.25;2.30;;;;;;;15.63;48.54;99830.47;7710929;32;37267;-87
2023/05/12 00:37:55;;;;;;;4.62;2.50;;;;;;;15.44;49.25;99821.53;7719568;32;39388;-83
2023/05/12 00:42:12;;;;;;;3.78;2.08;;;;;;;15.62;48.85;99828.84;7737425;32;40027;-87
2023/05/12 00:46:28;;;;;;;3.37;2.25;;;;;;;15.47;49.55;99826.37;7737393;32;39028;-87
2023/05/12 00:50:44;;;;;;;3.83;2.05;;;;;;;15.43;49.70;99822.62;7732164;32;37207;-88
2023/05/12 00:55:02;;;;;;;4.28;2.47;;;;;;;15.48;49.56;99823.34;7710527;32;40122;-87
2023/05/12 00:59:18;;;;;;;3.12;2.15;;;;;;;15.32;50.29;99825.56;7725022;32;39716;-87
2023/05/12 01:03:34;;;;;;;3.67;2.25;;;;;;;15.61;49.49;99813.50;7736993;32;37985;-87
2023/05/12 01:07:51;;;;;;;3.35;2.33;;;;;;;15.46;50.09;99830.25;7737185;32;37164;-88
2023/05/12 01:12:07;;;;;;;5.32;2.30;;;;;;;15.17;51.23;99823.88;7723022;32;40155;-87
2023/05/12 01:16:27;;;;;;;4.40;2.72;;;;;;;15.33;50.82;99820.88;7731321;32;39219;-88
2023/05/12 01:20:44;;;;;;;5.78;2.65;;;;;;;15.26;51.41;99824.00;7698703;32;38028;-88
2023/05/12 01:25:01;;;;;;;4.57;2.40;;;;;;;15.08;52.44;99817.47;7729762;32;36939;-88
2023/05/12 01:29:18;;;;;;;7.95;2.72;;;;;;;14.94;53.06;99809.19;7739984;32;39340;-87
2023/05/12 01:33:35;;;;;;;5.37;2.37;;;;;;;14.79;53.71;99823.16;7739935;32;40675;-88
2023/05/12 01:37:52;;;;;;;3.50;2.58;;;;;;;14.99;53.12;99822.03;7726141;32;38644;-88
2023/05/12 01:42:08;;;;;;;4.40;2.47;;;;;;;14.95;53.45;99816.31;7724325;32;38254;-87
2023/05/12 01:46:24;;;;;;;3.20;2.30;;;;;;;14.95;53.63;99815.50;7729890;32;39068;-87
2023/05/12 01:50:41;;;;;;;5.10;2.80;;;;;;;15.15;52.81;99826.13;7739703;32;40878;-88
2023/05/12 01:54:57;;;;;;;4.18;2.53;;;;;;;14.94;53.72;99825.66;7731089;32;38754;-87
2023/05/12 01:59:13;;;;;;;5.10;2.50;;;;;;;14.34;55.85;99820.00;7739571;32;37158;-88
2023/05/12 02:03:30;;;;;;;3.50;2.70;;;;;;;14.77;54.98;99825.41;7719309;32;39264;-87
2023/05/12 02:07:47;;;;;;;4.57;2.75;;;;;;;14.81;54.77;99820.94;7712656;32;40844;-88
2023/05/12 02:12:04;;;;;;;4.72;2.60;;;;;;;14.28;56.74;99825.53;7712413;32;38783;-88
2023/05/12 02:16:20;;;;;;;3.28;2.67;;;;;;;14.56;56.04;99825.69;7712669;32;37205;-86
2023/05/12 02:20:37;;;;;;;4.50;2.62;;;;;;;14.57;56.42;99821.84;7727933;32;40158;-87
2023/05/12 02:24:54;;;;;;;6.75;3.00;;;;;;;14.49;56.31;99830.75;7739347;32;39939;-88
2023/05/12 02:29:11;;;;;;;4.37;2.58;;;;;;;14.20;57.05;99819.91;7738787;32;38787;-88
2023/05/12 02:33:27;;;;;;;3.53;2.60;;;;;;;14.62;56.22;99830.00;7718862;32;37043;-89
2023/05/12 02:37:43;;;;;;;6.50;3.20;;;;;;;14.33;57.69;99821.09;7712365;32;39385;-88
2023/05/12 02:41:59;;;;;;;4.93;3.03;;;;;;;14.51;57.18;99833.19;7712199;32;40016;-88
2023/05/12 02:46:16;;;;;;;5.47;2.72;;;;;;;14.31;58.08;99834.28;7712146;32;37812;-88
2023/05/12 02:50:32;;;;;;;5.07;2.80;;;;;;;14.46;57.62;99831.31;7711711;32;37105;-88
2023/05/12 02:54:48;;;;;;;6.28;2.92;;;;;;;14.29;57.91;99837.31;7738787;32;38692;-88
2023/05/12 02:59:05;;;;;;;9.43;2.92;;;;;;;14.44;57.54;99833.56;7738949;32;40775;-87
2023/05/12 03:03:21;;;;;;;4.97;2.95;;;;;;;14.41;57.66;99834.13;7738700;32;37817;-89
2023/05/12 03:07:38;;;;;;;5.32;2.90;;;;;;;14.35;58.17;99838.88;7738781;32;37850;-88
2023/05/12 03:11:54;;;;;;;7.05;3.28;;;;;;;14.33;58.82;99838.38;7738639;32;39148;-89
2023/05/12 03:16:11;;;;;;;4.57;2.97;;;;;;;14.24;58.82;99840.94;7724610;32;41570;-88
2023/05/12 03:20:27;;;;;;;4.82;2.97;;;;;;;14.31;59.18;99839.75;7711728;32;38003;-89
2023/05/12 03:24:43;;;;;;;4.80;2.97;;;;;;;14.25;59.41;99839.03;7711878;32;37932;-88
2023/05/12 03:29:00;;;;;;;5.53;2.87;;;;;;;14.08;59.93;99842.25;7711723;32;40075;-89
2023/05/12 03:33:16;;;;;;;8.88;3.25;;;;;;;14.09;59.74;99841.16;7711876;32;39792;-88
2023/05/12 03:37:32;;;;;;;5.18;3.05;;;;;;;14.20;59.22;99828.94;7711589;32;37654;-89
2023/05/12 03:41:49;;;;;;;6.68;3.08;;;;;;;14.04;60.25;99841.22;7710575;32;37828;-89
2023/05/12 03:46:06;;;;;;;8.73;3.67;;;;;;;13.79;61.33;99850.56;7712368;32;40930;-89
2023/05/12 03:50:22;;;;;;;5.68;3.00;;;;;;;13.82;60.94;99855.47;7711557;32;39822;-88
2023/05/12 03:54:38;;;;;;;5.75;3.30;;;;;;;14.19;59.83;99851.97;7711604;32;37832;-88
2023/05/12 03:58:56;;;;;;;6.55;3.37;;;;;;;14.03;60.45;99850.56;7711524;32;37098;-89
2023/05/12 04:03:12;;;;;;;6.82;3.37;;;;;;;14.10;60.57;99851.00;7697788;32;39278;-88
2023/05/12 04:07:28;;;;;;;7.20;3.37;;;;;;;13.98;61.29;99856.09;7711354;32;40600;-87
2023/05/12 04:11:44;;;;;;;4.80;3.08;;;;;;;14.00;61.15;99860.16;7723578;32;37997;-87
2023/05/12 04:16:01;;;;;;;5.60;2.90;;;;;;;14.11;60.62;99860.88;7711254;32;38092;-89
2023/05/12 04:20:17;;;;;;;4.87;3.20;;;;;;;14.10;61.37;99856.47;7711127;32;40118;-88
2023/05/12 04:24:35;;;;;;;7.00;3.60;;;;;;;14.31;60.22;99868.00;7711048;32;39977;-88
2023/05/12 04:28:52;;;;;;;6.93;3.03;;;;;;;14.06;60.66;99867.22;7710918;32;37932;-89
2023/05/12 04:33:11;;;;;;;8.48;3.75;;;;;;;14.09;61.28;99861.16;7710940;32;37015;-88
2023/05/12 04:37:27;;;;;;;5.35;3.55;;;;;;;14.25;60.71;99864.50;7710950;32;40182;-88
2023/05/12 04:41:43;;;;;;;7.30;3.80;;;;;;;14.07;61.18;99870.78;7712063;32;40055;-89
2023/05/12 04:46:00;;;;;;;5.37;3.47;;;;;;;14.17;60.67;99867.91;7737902;32;37770;-89
2023/05/12 04:50:16;;;;;;;4.93;3.50;;;;;;;13.68;62.00;99869.84;7737474;32;36863;-88
2023/05/12 04:54:32;;;;;;;5.35;3.22;;;;;;;13.98;62.02;99869.78;7736920;32;40154;-88
2023/05/12 04:58:49;;;;;;;4.53;3.10;;;;;;;13.88;62.52;99871.56;7737325;32;40034;-88
2023/05/12 05:03:05;;;;;;;6.20;3.30;;;;;;;14.17;61.40;99867.91;7737019;32;38789;-89
2023/05/12 05:07:22;;;;;;;6.55;3.75;;;;;;;13.93;62.83;99875.34;7735420;32;37810;-89
2023/05/12 05:11:38;;;;;;;6.30;3.70;;;;;;;13.59;63.87;99878.97;7722899;32;39326;-87
2023/05/12 05:15:54;;;;;;;5.82;3.70;;;;;;;14.05;62.07;99887.50;7736863;32;39723;-80
2023/05/12 05:20:11;;;;;;;9.07;3.47;;;;;;;14.13;62.00;99877.84;7735290;32;37789;-79
2023/05/12 05:24:30;;;;;;;6.30;4.00;;;;;;;13.87;62.69;99878.13;7696851;32;36780;-88
2023/05/12 05:28:47;;;;;;;6.80;4.00;;;;;;;14.10;62.00;99883.91;7733570;32;39163;-88
2023/05/12 05:33:03;;;;;;;7.37;3.90;;;;;;;13.98;62.79;99883.50;7717738;32;40747;-89
2023/05/12 05:37:20;;;;;;;5.47;3.40;;;;;;;13.87;63.34;99886.34;7721785;32;37312;-73
2023/05/12 05:41:36;;;;;;;5.53;3.70;;;;;;;14.15;63.58;99881.09;7736114;32;38473;-72
2023/05/12 05:45:54;;;;;;;6.70;3.75;;;;;;;14.03;63.57;99888.91;7733535;32;39944;-89
2023/05/12 05:50:11;;;;;;;10.50;3.90;;;;;;;14.04;63.14;99887.81;7709260;32;39041;-87
2023/05/12 05:54:27;;;;;;;7.50;3.85;;;;;;;13.95;63.41;99886.81;7709007;32;37792;-89
2023/05/12 05:58:43;;;;;;;8.20;3.47;;;;;;;14.13;63.03;99882.50;7708998;32;37880;-88
2023/05/12 06:03:00;;;;;;;8.38;3.90;;;;;;;14.15;63.35;99892.06;7720812;32;40482;-87
2023/05/12 06:07:16;;;;;;;6.12;3.67;;;;;;;13.93;64.18;99894.53;7738815;32;40697;-89
2023/05/12 06:11:34;;;;;;;9.27;3.75;;;;;;;13.99;63.66;99901.59;7737611;32;38003;-88
2023/05/12 06:15:51;;;;;;;5.20;3.47;;;;;;;14.25;63.49;99902.09;7739561;32;37893;-85
2023/05/12 06:20:08;;;;;;;7.15;4.03;;;;;;;14.34;63.78;99888.53;7736212;32;39382;-73
2023/05/12 06:24:24;;;;;;;6.03;3.40;;;;;;;14.31;64.34;99892.69;7712499;32;39808;-84
2023/05/12 06:28:40;;;;;;;6.55;3.65;;;;;;;14.54;62.58;99895.66;7713372;32;37675;-85
2023/05/12 06:32:58;;;;;;;6.72;3.20;;;;;;;14.37;63.06;99893.44;7722633;32;37044;-85
2023/05/12 06:37:14;;;;;;;5.55;3.35;;;;;;;14.54;62.31;99887.44;7739232;32;39163;-84
2023/05/12 06:41:32;;;;;;;8.00;3.62;;;;;;;14.42;63.48;99885.97;7723715;32;39986;-85
2023/05/12 06:45:49;;;;;;;6.22;3.60;;;;;;;14.38;63.61;99895.88;7712143;32;37729;-85
2023/05/12 06:50:07;;;;;;;7.50;4.05;;;;;;;14.58;62.88;99893.97;7715118;32;37153;-86
2023/05/12 06:54:23;;;;;;;5.32;3.53;;;;;;;14.44;62.74;99893.91;7725555;32;39385;-84
2023/05/12 06:58:39;;;;;;;5.05;3.37;;;;;;;14.55;63.25;99895.37;7720236;32;40677;-84
2023/05/12 07:02:57;;;;;;;6.53;4.10;;;;;;;14.47;62.89;99904.28;7718295;32;39120;-84
2023/05/12 07:07:13;;;;;;;8.77;4.00;;;;;;;14.49;63.23;99903.97;7726689;32;37438;-84
2023/05/12 07:11:30;;;;;;;8.07;3.72;;;;;;;14.61;63.21;99899.72;7711807;32;40410;-84
2023/05/12 07:15:46;;;;;;;9.23;4.20;;;;;;;14.66;64.30;99901.59;7711912;32;41387;-84
2023/05/12 07:20:03;;;;;;;5.87;3.53;;;;;;;14.80;63.44;99902.47;7711965;32;37746;-83
2023/05/12 07:24:20;;;;;;;7.60;3.83;;;;;;;14.40;64.23;99898.31;7714821;32;37003;-84
2023/05/12 07:28:36;;;;;;;7.65;3.97;;;;;;;14.98;62.87;99898.06;7736035;32;39089;-84
2023/05/12 07:32:53;;;;;;;7.60;4.15;;;;;;;14.88;62.52;99898.22;7737915;32;40691;-84
2023/05/12 07:37:09;;;;;;;5.87;3.35;;;;;;;14.75;62.85;99901.72;7737795;32;36202;-84
2023/05/12 07:41:26;;;;;;;7.57;3.67;;;;;;;14.85;62.09;99904.31;7737954;32;37095;-84
2023/05/12 07:45:42;;;;;;;7.40;4.00;;;;;;;14.50;64.31;99900.13;7737587;32;39120;-84
2023/05/12 07:49:59;;;;;;;7.65;3.45;;;;;;;14.73;64.03;99912.16;7737680;32;39867;-83
2023/05/12 07:54:16;;;;;;;5.95;3.80;;;;;;;14.96;63.12;99911.28;7737774;32;38664;-84
2023/05/12 07:58:32;;;;;;;6.07;3.90;;;;;;;14.88;62.90;99913.88;7737454;32;36861;-84
2023/05/12 08:02:48;;;;;;;6.53;3.65;;;;;;;15.01;63.42;99911.19;7737672;32;39428;-84
2023/05/12 08:07:05;;;;;;;9.70;6.18;;;;;;;14.83;62.46;99923.00;7715146;32;362767;-83
2023/05/12 08:11:22;;;;;;;9.18;5.45;;;;;;;14.90;63.41;99920.72;7722027;32;38090;-84
2023/05/12 08:15:39;;;;;;;7.50;4.60;;;;;;;14.45;65.25;99926.53;7737357;32;37933;-83
2023/05/12 08:19:55;;;;;;;7.43;3.80;;;;;;;15.10;63.37;99919.56;7737299;32;40108;-83
2023/05/12 08:24:11;;;;;;;6.50;4.12;;;;;;;14.89;63.25;99932.78;7712936;32;41109;-85
2023/05/12 08:28:29;;;;;;;8.02;4.00;;;;;;;14.64;63.86;99926.56;7721612;32;38620;-84
2023/05/12 08:32:45;;;;;;;6.60;3.90;;;;;;;14.26;65.88;99928.38;7737369;32;38118;-85
2023/05/12 08:37:02;;;;;;;8.23;4.25;;;;;;;14.44;65.43;99932.28;7730016;32;39880;-84
2023/05/12 08:41:24;;;;;;;7.45;4.07;;;;;;;14.22;64.91;99946.53;7710335;32;39898;-85
2023/05/12 08:45:40;;;;;;;6.37;4.00;;;;;;;14.41;64.95;99941.09;7696875;32;37667;-85
2023/05/12 08:50:02;;;;;;;10.90;4.72;;;;;;;14.30;65.48;99948.66;7713191;32;37865;-84
2023/05/12 08:54:20;;;;;;;7.78;4.37;;;;;;;14.52;64.29;99945.38;7710260;32;39353;-84
2023/05/12 08:58:36;;;;;;;9.48;4.20;;;;;;;14.84;63.71;99950.16;7709652;32;39774;-84
2023/05/12 09:02:58;;;;;;;7.87;4.68;;;;;;;14.07;63.49;99951.09;7709874;32;38606;-84
2023/05/12 09:07:17;;;;;;;9.70;4.90;;;;;;;14.06;64.97;99954.13;7704971;32;36397;-85
2023/05/12 09:11:33;;;;;;;8.85;4.97;;;;;;;14.04;66.23;99951.69;7696276;32;39405;-84
2023/05/12 09:15:52;;;;;;;9.05;5.20;;;;;;;14.37;63.83;99960.06;7726091;32;40877;-85
2023/05/12 09:20:10;;;;;;;8.95;5.15;;;;;;;14.22;64.81;99966.53;7695937;32;38655;-85
2023/05/12 09:24:45;;;;;;;9.10;4.40;;;;;;;13.95;64.26;99969.84;7709144;32;37221;-86
2023/05/12 09:29:06;;;;;;;8.10;4.87;;;;;;;14.36;62.70;99968.59;7725178;32;39281;-86
2023/05/12 09:33:24;;;;;;;10.45;5.32;;;;;;;14.20;63.03;99968.78;7736103;32;40858;-84
2023/05/12 09:37:40;;;;;;;8.07;4.90;;;;;;;13.62;65.39;99977.03;7735794;32;39377;-84
2023/05/12 09:41:57;;;;;;;9.85;5.40;;;;;;;13.87;65.23;99968.56;7737575;32;37007;-84
2023/05/12 09:46:13;;;;;;;10.43;5.07;;;;;;;14.00;63.61;99977.22;7739930;32;39427;-86
2023/05/12 09:50:30;;;;;;;40.50;15.00;;;;;;;13.94;64.21;99978.37;7729541;32;39880;-85
2023/05/12 09:55:12;;;;;;;18.52;7.30;;;;;;;14.20;62.76;99978.94;7708916;32;37870;-84
2023/05/12 09:59:37;;;;;;;16.20;5.25;;;;;;;14.06;62.88;99985.09;7715267;32;37345;-84
2023/05/12 10:03:57;;;;;;;8.02;5.35;;;;;;;14.05;62.68;99990.88;7718371;32;40116;-84
2023/05/12 10:08:18;;;;;;;9.38;4.70;;;;;;;13.61;63.91;99986.37;7726121;32;39183;-85
2023/05/12 10:12:35;;;;;;;11.43;5.22;;;;;;;13.58;63.47;99992.41;7719164;32;37801;-85
2023/05/12 10:16:51;;;;;;;7.72;4.80;;;;;;;13.50;63.43;99991.94;7716387;32;37211;-84
2023/05/12 10:21:10;;;;;;;9.13;4.80;;;;;;;13.08;64.61;99985.06;7723823;32;39373;-82
2023/05/12 10:25:28;;;;;;;8.43;4.80;;;;;;;13.14;65.55;99996.78;7727540;32;39927;-82
2023/05/12 10:29:46;;;;;;;12.35;5.87;;;;;;;13.55;64.10;100003.94;7712055;32;37335;-83
2023/05/12 10:34:03;;;;;;;18.30;6.05;;;;;;;13.10;67.87;100003.94;7706198;32;36035;-82
2023/05/12 10:38:19;;;;;;;12.23;5.53;;;;;;;13.62;65.73;99998.94;7736567;32;40069;-82
2023/05/12 10:42:41;;;;;;;11.65;5.57;;;;;;;13.84;65.50;99996.53;7703807;32;41151;-83
2023/05/12 10:47:01;;;;;;;10.90;5.65;;;;;;;13.55;66.22;100003.94;7708713;32;38760;-84
2023/05/12 10:51:25;;;;;;;10.60;5.72;;;;;;;13.89;64.36;100004.72;7712981;32;36799;-84
2023/05/12 10:55:46;;;;;;;13.32;7.28;;;;;;;14.02;64.62;100005.16;7699009;32;37761;-83
2023/05/12 11:00:04;;;;;;;9.27;5.53;;;;;;;14.07;64.23;100005.94;7737613;32;40122;-85
2023/05/12 11:04:21;;;;;;;8.63;5.18;;;;;;;14.30;63.54;100008.12;7707061;32;37946;-84
2023/05/12 11:08:42;;;;;;;11.23;4.97;;;;;;;13.99;64.00;100003.81;7698199;32;37067;-83
2023/05/12 11:12:59;;;;;;;9.23;4.97;;;;;;;14.19;64.13;100016.47;7707259;32;40050;-83
2023/05/12 11:17:15;;;;;;;8.63;4.78;;;;;;;13.74;64.90;100010.34;7721353;32;38297;-83
2023/05/12 11:21:32;;;;;;;11.60;5.32;;;;;;;13.84;64.33;100013.00;7730039;32;38752;-82
2023/05/12 11:25:48;;;;;;;10.55;5.28;;;;;;;13.90;65.00;100006.37;7713697;32;37218;-82
2023/05/12 11:30:05;;;;;;;10.00;4.12;;;;;;;14.02;65.32;100013.37;7738090;32;39488;-81
2023/05/12 11:34:23;;;;;;;9.05;4.12;;;;;;;13.58;63.96;100014.31;7736364;32;39737;-81
2023/05/12 11:38:47;;;;;;;7.70;4.40;;;;;;;13.69;63.86;100013.13;7711632;32;39833;-82
2023/05/12 11:43:09;;;;;;;7.50;4.00;;;;;;;14.13;63.04;100005.88;7711648;32;37083;-81
2023/05/12 11:47:26;;;;;;;8.40;4.50;;;;;;;14.11;63.75;100016.28;7711733;32;40042;-81
2023/05/12 11:51:42;;;;;;;7.07;4.00;;;;;;;13.95;63.56;100012.88;7712407;32;39732;-82
2023/05/12 11:55:59;;;;;;;6.97;4.10;;;;;;;14.05;62.98;100012.78;7731973;32;37961;-82
2023/05/12 12:00:16;;;;;;;7.37;3.62;;;;;;;13.74;63.38;100013.06;7737446;32;34840;-83
2023/05/12 12:04:32;;;;;;;5.85;3.80;;;;;;;13.95;64.15;100018.38;7730374;32;40562;-81
2023/05/12 12:08:58;;;;;;;5.00;3.60;;;;;;;13.84;64.11;100018.47;7721857;32;40043;-86
2023/05/12 12:13:23;;;;;;;8.25;4.40;;;;;;;14.14;64.33;100022.00;7734197;32;37424;-85
2023/05/12 12:17:40;;;;;;;10.65;6.18;;;;;;;13.66;64.96;100033.69;7731752;32;37254;-83
2023/05/12 12:21:57;;;;;;;6.43;4.00;;;;;;;13.65;64.53;100028.50;7715589;32;39972;-84
2023/05/12 12:26:15;;;;;;;8.77;3.92;;;;;;;13.23;66.80;100029.84;7717231;32;41019;-85
2023/05/12 12:30:32;;;;;;;8.13;4.18;;;;;;;12.71;68.42;100030.16;7727373;32;38878;-81
2023/05/12 12:34:49;;;;;;;9.55;4.60;;;;;;;12.99;68.00;100018.78;7712697;32;37005;-81
2023/05/12 12:39:05;;;;;;;8.32;4.95;;;;;;;13.39;65.94;100025.16;7734048;32;38908;-81
2023/05/12 12:43:22;;;;;;;11.23;5.15;;;;;;;13.69;66.14;100022.19;7726582;32;39726;-82
2023/05/12 12:47:39;;;;;;;8.38;5.00;;;;;;;13.45;66.04;100011.13;7730278;32;37887;-82
2023/05/12 12:51:56;;;;;;;9.90;6.20;;;;;;;13.22;67.35;100022.75;7716991;32;37264;-83
2023/05/12 12:56:12;;;;;;;10.90;5.25;;;;;;;13.11;67.61;100022.81;7733824;32;40325;-82
2023/05/12 13:00:28;;;;;;;10.88;5.20;;;;;;;13.33;67.60;100029.81;7732776;32;39671;-76
2023/05/12 13:04:45;;;;;;;8.18;4.22;;;;;;;13.61;67.64;100016.50;7709218;32;38748;-82
2023/05/12 13:09:02;;;;;;;7.00;3.90;;;;;;;13.75;66.49;100019.41;7709773;32;37372;-84
2023/05/12 13:13:19;;;;;;;11.05;6.15;;;;;;;14.09;64.56;100013.87;7722499;32;39297;-84
2023/05/12 13:17:36;;;;;;;7.70;4.20;;;;;;;13.21;65.46;100011.00;7741289;32;39993;-83
2023/05/12 13:21:53;;;;;;;8.25;4.53;;;;;;;13.18;65.66;100022.50;7730924;32;38598;-84
2023/05/12 13:26:10;;;;;;;8.35;4.07;;;;;;;13.19;65.45;100023.31;7729254;32;37031;-83
2023/05/12 13:30:26;;;;;;;8.00;4.90;;;;;;;13.08;66.40;100019.84;7739487;32;39182;-83
2023/05/12 13:34:43;;;;;;;5.35;3.78;;;;;;;13.28;65.67;100016.13;7768971;32;39841;-82
2023/05/12 13:39:01;;;;;;;7.37;3.55;;;;;;;13.17;66.31;100012.66;7718123;32;38073;-82
2023/05/12 13:43:18;;;;;;;6.10;3.10;;;;;;;13.14;65.66;100003.09;7717428;32;37313;-82
2023/05/12 13:47:34;;;;;;;5.45;3.15;;;;;;;13.53;64.59;99994.06;7733300;32;40197;-83
2023/05/12 13:51:50;;;;;;;4.57;2.78;;;;;;;13.56;65.04;100000.09;7740621;32;39573;-83
2023/05/12 13:56:07;;;;;;;6.72;3.42;;;;;;;13.07;66.14;100016.28;7740433;32;38393;-84
2023/05/12 14:00:25;;;;;;;11.52;6.95;;;;;;;13.09;65.44;100025.03;7741517;32;36744;-83
2023/05/12 14:04:42;;;;;;;7.15;4.05;;;;;;;13.34;65.39;100026.00;7742346;32;39534;-83
2023/05/12 14:08:58;;;;;;;7.95;4.47;;;;;;;13.37;65.67;100025.44;7744289;32;40658;-82
2023/05/12 14:13:15;;;;;;;8.05;3.85;;;;;;;13.24;65.62;100026.84;7743729;32;37954;-82
2023/05/12 14:17:31;;;;;;;9.90;3.70;;;;;;;13.41;64.54;100021.00;7743745;32;37264;-71
2023/05/12 14:21:48;;;;;;;4.97;2.92;;;;;;;13.57;64.77;100018.16;7742807;32;40069;-84
2023/05/12 14:26:05;;;;;;;5.07;3.47;;;;;;;13.92;63.33;100013.47;7741539;32;39777;-83
2023/05/12 14:30:21;;;;;;;5.12;3.42;;;;;;;13.56;62.78;100022.03;7739275;32;37951;-83
2023/05/12 14:34:38;;;;;;;11.63;3.47;;;;;;;13.59;62.83;100030.47;7739237;32;37060;-84
2023/05/12 14:38:55;;;;;;;7.10;4.05;;;;;;;13.67;63.13;100045.47;7739255;32;40376;-84
2023/05/12 14:43:11;;;;;;;6.35;3.20;;;;;;;13.65;63.35;100039.47;7739129;32;40860;-85
2023/05/12 14:47:27;;;;;;;7.65;3.70;;;;;;;13.49;62.31;100045.06;7726677;32;38018;-86
2023/05/12 14:51:44;;;;;;;8.13;3.90;;;;;;;13.38;64.47;100032.53;7707664;32;37000;-85
2023/05/12 14:56:00;;;;;;;5.93;3.67;;;;;;;13.80;63.59;100044.00;7724993;32;39136;-84
2023/05/12 15:00:17;;;;;;;9.85;4.28;;;;;;;13.44;64.51;100049.75;7723857;32;40087;-84
2023/05/12 15:04:33;;;;;;;7.75;3.85;;;;;;;12.92;66.69;100046.47;7721100;32;38094;-84
2023/05/12 15:08:50;;;;;;;8.10;3.80;;;;;;;13.40;65.46;100052.25;7719805;32;37776;-85
2023/05/12 15:13:07;;;;;;;6.57;4.10;;;;;;;13.39;65.14;100052.53;7708880;32;40047;-86
2023/05/12 15:17:23;;;;;;;5.57;3.78;;;;;;;12.86;67.57;100055.78;7697393;32;40043;-85
2023/05/12 15:21:40;;;;;;;6.78;4.40;;;;;;;13.29;65.94;100065.13;7724117;32;38013;-84
2023/05/12 15:25:56;;;;;;;8.48;4.45;;;;;;;13.14;66.41;100065.22;7738729;32;36854;-85
2023/05/12 15:30:18;;;;;;;9.48;4.50;;;;;;;13.55;65.88;100062.25;7738760;32;39303;-85
2023/05/12 15:34:35;;;;;;;8.48;4.37;;;;;;;13.66;65.39;100071.22;7725499;32;40628;-86
2023/05/12 15:38:51;;;;;;;7.25;3.70;;;;;;;13.44;66.58;100074.41;7735142;32;38652;-84
2023/05/12 15:43:07;;;;;;;9.88;4.47;;;;;;;13.73;65.40;100071.75;7721386;32;37327;-85
2023/05/12 15:47:24;;;;;;;7.57;3.90;;;;;;;13.41;66.83;100075.78;7717629;32;39998;-85
2023/05/12 15:51:40;;;;;;;8.25;3.80;;;;;;;13.53;66.20;100083.66;7719018;32;39712;-85
2023/05/12 15:56:01;;;;;;;7.70;3.85;;;;;;;13.73;65.69;100071.75;7718314;32;38006;-85
2023/05/12 16:00:19;;;;;;;6.62;4.32;;;;;;;13.76;65.70;100071.13;7725500;32;37832;-85
2023/05/12 16:04:36;;;;;;;7.37;3.90;;;;;;;13.44;66.73;100072.47;7737042;32;38307;-85
2023/05/12 16:08:52;;;;;;;7.72;4.12;;;;;;;13.93;65.33;100069.94;7737717;32;41233;-85
2023/05/12 16:13:09;;;;;;;9.07;3.92;;;;;;;13.68;66.27;100064.37;7737808;32;36199;-85
2023/05/12 16:17:26;;;;;;;7.07;3.78;;;;;;;13.84;65.78;100064.25;7736829;32;37854;-85
2023/05/12 16:21:43;;;;;;;7.97;4.05;;;;;;;13.90;65.85;100069.41;7737852;32;40149;-84
2023/05/12 16:26:00;;;;;;;7.75;3.70;;;;;;;14.16;64.69;100069.16;7714003;32;40019;-86
2023/05/12 16:30:17;;;;;;;9.82;3.70;;;;;;;13.94;64.59;100072.38;7710897;32;37992;-85
2023/05/12 16:34:35;;;;;;;7.22;4.05;;;;;;;13.95;64.80;100078.66;7712251;32;36829;-85
2023/05/12 16:38:52;;;;;;;8.18;3.53;;;;;;;13.78;65.88;100090.88;7737239;32;39413;-85
2023/05/12 16:43:10;;;;;;;6.15;3.90;;;;;;;14.11;64.92;100076.59;7737017;32;40124;-84
2023/05/12 16:47:28;;;;;;;9.23;3.78;;;;;;;13.96;65.35;100077.56;7736201;32;38820;-85
2023/05/12 16:51:45;;;;;;;8.63;4.30;;;;;;;13.95;65.67;100084.97;7737008;32;36812;-85
2023/05/12 16:56:03;;;;;;;6.95;3.50;;;;;;;13.78;65.66;100087.28;7736307;32;39921;-84
2023/05/12 17:00:20;;;;;;;7.28;3.22;;;;;;;14.14;64.70;100082.31;7737353;32;40908;-85
2023/05/12 17:04:37;;;;;;;7.20;4.00;;;;;;;13.98;65.07;100087.13;7734193;32;38028;-85
2023/05/12 17:08:55;;;;;;;11.18;3.90;;;;;;;13.85;65.69;100085.06;7736463;32;38391;-84
2023/05/12 17:13:12;;;;;;;6.90;3.90;;;;;;;13.92;65.19;100085.56;7736473;32;39421;-84
2023/05/12 17:17:28;;;;;;;8.32;4.20;;;;;;;14.05;64.76;100086.81;7717281;32;40626;-84
2023/05/12 17:21:45;;;;;;;8.98;4.40;;;;;;;14.01;64.79;100092.06;7709880;32;38804;-85
2023/05/12 17:26:01;;;;;;;8.07;3.80;;;;;;;13.83;65.52;100100.97;7709044;32;37170;-86
2023/05/12 17:30:18;;;;;;;7.10;4.43;;;;;;;13.71;66.13;100106.81;7730419;32;40082;-85
2023/05/12 17:34:37;;;;;;;7.43;4.28;;;;;;;13.56;66.59;100098.72;7731633;32;39919;-84
2023/05/12 17:38:53;;;;;;;7.68;4.22;;;;;;;13.69;65.98;100109.00;7729611;32;38065;-85
2023/05/12 17:43:10;;;;;;;9.40;4.85;;;;;;;13.75;65.58;100110.63;7734590;32;36995;-85
2023/05/12 17:47:27;;;;;;;8.68;4.70;;;;;;;13.64;65.67;100122.75;7735507;32;39366;-86
2023/05/12 17:51:43;;;;;;;10.55;5.12;;;;;;;13.63;66.33;100115.66;7722445;32;40829;-86
2023/05/12 17:56:00;;;;;;;9.50;4.82;;;;;;;13.44;66.60;100123.69;7724213;32;37941;-84
2023/05/12 18:00:17;;;;;;;12.68;5.10;;;;;;;13.41;67.00;100118.78;7709564;32;37676;-85
2023/05/12 18:04:33;;;;;;;8.88;4.53;;;;;;;13.29;67.36;100124.56;7716616;32;39292;-86
2023/05/12 18:08:50;;;;;;;7.15;4.82;;;;;;;13.68;65.79;100123.81;7739381;32;39933;-85
2023/05/12 18:13:06;;;;;;;8.68;4.80;;;;;;;13.56;66.50;100123.38;7728486;32;38014;-85
2023/05/12 18:17:22;;;;;;;7.35;4.80;;;;;;;13.42;66.93;100121.25;7727686;32;37012;-85
2023/05/12 18:21:39;;;;;;;9.25;4.95;;;;;;;13.65;66.06;100127.12;7712681;32;39396;-84
2023/05/12 18:25:55;;;;;;;9.40;4.62;;;;;;;13.79;65.62;100127.31;7739802;32;38407;-86
2023/05/12 18:30:12;;;;;;;7.45;4.18;;;;;;;13.27;66.95;100124.03;7737289;32;38654;-86
2023/05/12 18:34:29;;;;;;;7.35;4.50;;;;;;;13.46;66.55;100133.25;7718605;32;37712;-86
2023/05/12 18:38:46;;;;;;;7.57;4.55;;;;;;;12.93;68.71;100131.00;7735360;32;39060;-85
2023/05/12 18:43:02;;;;;;;11.80;5.35;;;;;;;13.64;65.96;100139.19;7737557;32;40158;-86
2023/05/12 18:47:19;;;;;;;11.68;5.32;;;;;;;13.51;66.51;100127.75;7738003;32;38698;-85
2023/05/12 18:51:37;;;;;;;8.65;5.10;;;;;;;13.47;66.86;100129.44;7720376;32;37894;-85
2023/05/12 18:55:54;;;;;;;12.37;5.68;;;;;;;13.26;67.52;100133.34;7719031;32;39983;-85
2023/05/12 19:00:14;;;;;;;11.52;4.95;;;;;;;13.19;67.62;100138.31;7707018;32;40024;-83
2023/05/12 19:04:30;;;;;;;11.45;5.30;;;;;;;12.99;68.56;100145.50;7717139;32;38360;-84
2023/05/12 19:08:47;;;;;;;7.15;4.47;;;;;;;13.36;66.53;100149.75;7721139;32;37433;-85
2023/05/12 19:13:03;;;;;;;14.87;5.25;;;;;;;13.05;67.44;100149.84;7719837;32;39392;-84
2023/05/12 19:17:20;;;;;;;10.90;4.75;;;;;;;13.15;66.60;100154.47;7720991;32;39082;-86
2023/05/12 19:21:41;;;;;;;11.23;5.53;;;;;;;13.24;66.31;100154.72;7720688;32;38214;-85
2023/05/12 19:25:58;;;;;;;10.60;4.95;;;;;;;12.94;67.44;100156.47;7707855;32;37140;-85
2023/05/12 19:30:15;;;;;;;9.25;5.40;;;;;;;12.99;67.56;100153.72;7719755;32;39434;-85
2023/05/12 19:34:34;;;;;;;9.20;5.28;;;;;;;13.17;66.68;100159.66;7720943;32;40728;-86
2023/05/12 19:38:58;;;;;;;8.57;5.25;;;;;;;12.78;68.27;100164.72;7732532;32;38274;-86
2023/05/12 19:43:14;;;;;;;8.63;5.30;;;;;;;13.17;67.06;100162.41;7736731;32;37345;-86
2023/05/12 19:47:33;;;;;;;8.23;4.82;;;;;;;13.17;66.76;100162.41;7733214;32;39260;-85
2023/05/12 19:51:53;;;;;;;9.02;5.53;;;;;;;13.27;66.66;100167.84;7736411;32;40919;-85
2023/05/12 19:56:11;;;;;;;7.53;5.15;;;;;;;12.90;68.21;100174.53;7735888;32;38678;-85
2023/05/12 20:00:28;;;;;;;9.68;5.12;;;;;;;12.33;69.86;100176.53;7734902;32;37415;-86
2023/05/12 20:04:44;;;;;;;9.18;5.00;;;;;;;12.91;68.48;100173.44;7718971;32;39333;-84